Time;durP1;ratioP1;P1;durP2;ratioP2;P2;SDS_P1;SDS_P2;PMS_P1;PMS_P2;Temp;Humidity;BMP_temperature;BMP_pressure;BME280_temperature;BME280_humidity;BME280_pressure;Samples;Min_cycle;Max_cycle;Signal;HPM_P1;HPM_P2
2023/03/15 00:00:44;;;;;;;9.50;2.28;;;2.50;99.90;;;;;;5074341;28;20380;-75
2023/03/15 00:03:10;;;;;;;7.53;2.03;;;2.70;99.90;;;;;;5071071;28;20063;-74
2023/03/15 00:05:36;;;;;;;10.40;2.15;;;2.50;99.90;;;;;;5088393;28;20067;-74
2023/03/15 00:08:02;;;;;;;8.52;2.00;;;2.60;99.90;;;;;;5079433;28;20051;-74
2023/03/15 00:10:28;;;;;;;9.07;2.08;;;2.50;99.90;;;;;;5080131;28;20496;-75
2023/03/15 00:12:54;;;;;;;10.68;2.60;;;2.50;99.90;;;;;;5057177;28;20186;-75
2023/03/15 00:15:20;;;;;;;9.63;2.42;;;2.60;99.90;;;;;;5057998;28;20488;-74
2023/03/15 00:17:46;;;;;;;10.27;2.45;;;2.50;99.90;;;;;;5057363;28;20052;-75
2023/03/15 00:20:15;;;;;;;7.80;2.50;;;2.60;99.90;;;;;;5074166;28;20044;-74
2023/03/15 00:22:41;;;;;;;9.63;2.60;;;2.50;99.90;;;;;;5074148;28;20060;-75
2023/03/15 00:25:07;;;;;;;9.57;2.50;;;3.00;99.90;;;;;;5074176;28;20104;-75
2023/03/15 00:27:33;;;;;;;10.13;2.65;;;2.50;99.90;;;;;;5074404;28;20495;-74
2023/03/15 00:29:59;;;;;;;10.93;2.38;;;2.50;99.90;;;;;;5074277;28;20028;-74
2023/03/15 00:32:24;;;;;;;6.50;2.03;;;2.50;99.90;;;;;;5073798;28;20040;-75
2023/03/15 00:34:53;;;;;;;8.07;2.30;;;2.60;99.90;;;;;;5074450;28;20127;-75
2023/03/15 00:37:20;;;;;;;8.52;2.08;;;2.60;99.90;;;;;;5073493;28;20048;-74
2023/03/15 00:39:47;;;;;;;6.97;2.13;;;2.90;99.90;;;;;;5073395;28;20394;-74
2023/03/15 00:42:16;;;;;;;6.70;2.05;;;2.70;99.90;;;;;;5077686;28;20044;-75
2023/03/15 00:44:45;;;;;;;8.75;2.22;;;2.60;99.90;;;;;;5077744;28;20531;-75
2023/03/15 00:47:13;;;;;;;7.72;1.88;;;2.60;99.90;;;;;;5094635;28;20040;-74
2023/03/15 00:49:40;;;;;;;6.57;1.85;;;2.60;99.90;;;;;;5074373;28;20048;-74
2023/03/15 00:52:06;;;;;;;7.72;1.92;;;2.60;99.90;;;;;;5074584;28;20520;-74
2023/03/15 00:54:32;;;;;;;7.40;1.65;;;2.60;99.90;;;;;;5077993;28;20055;-74
2023/03/15 00:57:01;;;;;;;9.60;1.80;;;2.60;99.90;;;;;;5060861;28;20112;-74
2023/03/15 00:59:34;;;;;;;7.45;1.80;;;2.60;99.90;;;;;;5076885;28;20395;-75
2023/03/15 01:02:05;;;;;;;8.00;1.70;;;2.70;99.90;;;;;;5060274;28;20065;-74
2023/03/15 01:04:31;;;;;;;8.70;2.03;;;2.60;99.90;;;;;;5095736;28;20052;-74
2023/03/15 01:06:57;;;;;;;7.47;1.63;;;2.60;99.90;;;;;;5060053;28;20071;-74
2023/03/15 01:09:23;;;;;;;5.93;1.85;;;2.70;99.90;;;;;;5077288;28;20135;-74
2023/03/15 01:11:49;;;;;;;7.53;1.77;;;2.60;99.90;;;;;;5074083;28;20046;-74
2023/03/15 01:14:15;;;;;;;6.68;1.48;;;2.60;99.90;;;;;;5089196;28;20051;-74
2023/03/15 01:16:41;;;;;;;6.53;1.80;;;2.60;99.90;;;;;;5060054;28;20064;-74
2023/03/15 01:19:07;;;;;;;6.90;1.83;;;2.60;99.90;;;;;;5073847;28;20052;-74
2023/03/15 01:21:32;;;;;;;8.13;1.70;;;2.60;99.90;;;;;;5092473;28;20052;-74
2023/03/15 01:23:58;;;;;;;6.70;1.77;;;2.60;99.90;;;;;;5074027;28;20082;-74
2023/03/15 01:26:24;;;;;;;8.25;1.63;;;2.60;99.90;;;;;;5089660;28;20055;-74
2023/03/15 01:28:50;;;;;;;7.53;1.60;;;2.50;99.90;;;;;;5076875;28;20048;-74
2023/03/15 01:31:24;;;;;;;6.38;1.55;;;2.40;99.90;;;;;;5094566;28;20047;-74
2023/03/15 01:33:51;;;;;;;7.95;1.65;;;2.40;99.90;;;;;;5073839;28;20393;-74
2023/03/15 01:36:18;;;;;;;9.40;2.08;;;2.40;99.90;;;;;;5050166;28;20051;-74
2023/03/15 01:38:44;;;;;;;7.63;1.65;;;2.40;99.90;;;;;;5075860;28;20123;-74
2023/03/15 01:41:13;;;;;;;7.68;1.77;;;2.40;99.90;;;;;;5094631;28;20052;-74
2023/03/15 01:43:45;;;;;;;8.32;1.50;;;2.30;99.90;;;;;;5074757;28;20482;-74
2023/03/15 01:46:23;;;;;;;;;;;2.30;99.90;;;;;;5042206;28;20131;-74
2023/03/15 01:49:01;;;;;;;6.55;1.58;;;2.20;99.90;;;;;;5078088;28;20477;-74
2023/03/15 01:51:55;;;;;;;9.25;1.90;;;2.20;99.90;;;;;;5070921;28;20075;-74
2023/03/15 01:54:58;;;;;;;9.20;1.70;;;2.20;99.90;;;;;;5079856;28;20480;-74
2023/03/15 01:57:54;;;;;;;7.68;1.73;;;2.10;99.90;;;;;;5057461;28;20408;-75
2023/03/15 02:00:20;;;;;;;7.18;1.60;;;2.10;99.90;;;;;;5076297;28;20071;-74
2023/03/15 02:02:56;;;;;;;11.55;2.08;;;2.10;99.90;;;;;;5079443;28;20472;-74
2023/03/15 02:05:31;;;;;;;8.90;1.70;;;2.10;99.90;;;;;;5093965;28;20044;-74
2023/03/15 02:07:57;;;;;;;8.43;1.70;;;2.20;99.90;;;;;;5072548;28;20285;-74
2023/03/15 02:10:37;;;;;;;10.50;1.80;;;2.00;99.90;;;;;;5066081;28;20131;-74
2023/03/15 02:13:03;;;;;;;12.40;2.25;;;2.20;99.90;;;;;;5059156;28;20055;-74
2023/03/15 02:15:30;;;;;;;8.45;1.88;;;2.00;99.90;;;;;;5072355;28;20049;-74
2023/03/15 02:17:55;;;;;;;9.45;1.80;;;2.00;99.90;;;;;;5086771;28;20051;-74
2023/03/15 02:20:44;;;;;;;9.50;1.60;;;2.10;99.90;;;;;;5062865;28;20040;-74
2023/03/15 02:23:14;;;;;;;7.30;1.70;;;2.00;99.90;;;;;;5093487;28;20079;-75
2023/03/15 02:25:55;;;;;;;8.95;1.70;;;2.10;99.90;;;;;;5075926;28;20044;-74
2023/03/15 02:28:22;;;;;;;9.15;1.50;;;2.10;99.90;;;;;;5070604;28;20425;-75
2023/03/15 02:30:48;;;;;;;8.55;1.70;;;2.10;99.90;;;;;;5052604;28;20124;-74
2023/03/15 02:33:23;;;;;;;10.43;1.90;;;2.10;99.90;;;;;;5027256;28;20036;-75
2023/03/15 02:35:50;;;;;;;13.35;1.98;;;2.10;99.90;;;;;;5055892;28;20048;-75
2023/03/15 02:38:16;;;;;;;11.23;1.80;;;2.20;99.90;;;;;;5039730;28;20469;-74
2023/03/15 02:40:44;;;;;;;7.78;1.60;;;2.10;99.90;;;;;;5055340;28;20048;-74
2023/03/15 02:43:19;;;;;;;8.48;1.50;;;2.00;99.90;;;;;;5040127;28;20468;-75
2023/03/15 02:45:46;;;;;;;6.22;1.50;;;2.60;99.90;;;;;;5058412;28;20048;-74
2023/03/15 02:48:12;;;;;;;7.40;1.45;;;2.00;99.90;;;;;;5067812;28;20097;-75
2023/03/15 02:50:38;;;;;;;7.97;1.38;;;2.00;99.90;;;;;;5071426;28;20395;-75
2023/03/15 02:53:04;;;;;;;9.32;1.70;;;2.00;99.90;;;;;;5068259;28;20048;-75
2023/03/15 02:55:34;;;;;;;10.32;1.63;;;1.90;99.90;;;;;;5071238;28;20480;-75
2023/03/15 02:58:00;;;;;;;10.70;1.83;;;2.10;99.90;;;;;;5067392;28;20056;-75
2023/03/15 03:00:27;;;;;;;9.88;1.55;;;1.90;99.90;;;;;;5069292;28;20047;-75
2023/03/15 03:02:54;;;;;;;10.02;1.52;;;1.80;99.90;;;;;;5070950;28;20051;-75
2023/03/15 03:05:20;;;;;;;7.95;1.50;;;1.90;99.90;;;;;;5073073;28;20048;-75
2023/03/15 03:07:46;;;;;;;8.52;1.70;;;1.80;99.90;;;;;;5074584;28;20491;-75
2023/03/15 03:10:14;;;;;;;9.93;1.83;;;1.70;99.90;;;;;;5073986;28;20055;-75
2023/03/15 03:12:40;;;;;;;9.77;1.70;;;1.70;99.90;;;;;;5071613;28;20132;-75
2023/03/15 03:15:07;;;;;;;7.82;1.55;;;1.80;99.90;;;;;;5075260;28;20044;-75
2023/03/15 03:17:36;;;;;;;9.90;2.10;;;1.60;99.90;;;;;;5074152;28;20044;-75
2023/03/15 03:20:07;;;;;;;9.05;1.67;;;1.60;99.90;;;;;;5074894;28;20476;-75
2023/03/15 03:22:36;;;;;;;10.80;1.70;;;1.60;99.90;;;;;;5057650;28;20109;-75
2023/03/15 03:25:02;;;;;;;9.73;1.73;;;1.80;99.90;;;;;;5069830;28;20511;-75
2023/03/15 03:27:28;;;;;;;9.07;1.98;;;1.50;99.90;;;;;;5052922;28;20048;-75
2023/03/15 03:29:54;;;;;;;7.50;1.40;;;1.60;99.90;;;;;;5072604;28;20511;-75
2023/03/15 03:32:20;;;;;;;10.38;1.67;;;1.50;99.90;;;;;;5059667;28;20040;-75
2023/03/15 03:34:47;;;;;;;8.80;1.65;;;1.50;99.90;;;;;;5088450;28;20048;-75
2023/03/15 03:37:20;;;;;;;8.57;1.83;;;1.50;99.90;;;;;;5068426;28;20087;-75
2023/03/15 03:39:46;;;;;;;10.35;2.00;;;1.50;99.90;;;;;;5065769;28;20476;-75
2023/03/15 03:42:13;;;;;;;7.78;1.80;;;1.40;99.90;;;;;;5092485;28;20121;-75
2023/03/15 03:44:39;;;;;;;9.18;1.45;;;1.40;99.90;;;;;;5058753;28;20060;-75
2023/03/15 03:47:06;;;;;;;10.02;1.65;;;1.60;99.90;;;;;;5072046;28;20048;-75
2023/03/15 03:49:31;;;;;;;9.88;1.70;;;1.30;99.90;;;;;;5065204;28;20101;-75
2023/03/15 03:51:59;;;;;;;11.75;1.90;;;1.30;99.90;;;;;;5072796;28;20093;-75
2023/03/15 03:54:25;;;;;;;9.52;1.70;;;1.20;99.90;;;;;;5061340;28;20079;-75
2023/03/15 03:56:50;;;;;;;9.40;1.70;;;1.20;99.90;;;;;;5074704;28;20040;-75
2023/03/15 03:59:16;;;;;;;11.48;1.50;;;1.20;99.90;;;;;;5071388;28;20036;-75
2023/03/15 04:01:42;;;;;;;10.00;1.60;;;1.90;99.90;;;;;;5067263;28;20106;-75
2023/03/15 04:04:08;;;;;;;9.80;1.77;;;1.20;99.90;;;;;;5092819;28;20044;-75
2023/03/15 04:06:34;;;;;;;8.20;1.45;;;1.20;99.90;;;;;;5070507;28;20070;-75
2023/03/15 04:09:01;;;;;;;10.75;1.77;;;1.10;99.90;;;;;;5074072;28;20044;-75
2023/03/15 04:11:27;;;;;;;9.65;1.55;;;1.10;99.90;;;;;;5074636;28;20044;-75
2023/03/15 04:13:53;;;;;;;10.27;1.60;;;1.10;99.90;;;;;;5089095;28;20090;-75
2023/03/15 04:16:20;;;;;;;8.40;1.60;;;1.10;99.90;;;;;;5064773;28;20048;-75
2023/03/15 04:18:46;;;;;;;7.65;1.52;;;1.00;99.90;;;;;;5073748;28;20080;-75
2023/03/15 04:21:12;;;;;;;9.40;1.60;;;1.00;99.90;;;;;;5073947;28;20099;-75
2023/03/15 04:23:37;;;;;;;10.05;1.75;;;1.10;99.90;;;;;;5074724;28;20087;-75
2023/03/15 04:26:07;;;;;;;7.10;1.38;;;1.10;99.90;;;;;;5074614;28;20098;-75
2023/03/15 04:28:33;;;;;;;9.30;1.70;;;1.00;99.90;;;;;;5064018;28;20469;-75
2023/03/15 04:31:00;;;;;;;6.35;1.30;;;1.10;99.90;;;;;;5072798;28;20396;-75
2023/03/15 04:33:27;;;;;;;9.93;1.67;;;1.10;99.90;;;;;;5054441;28;20410;-75
2023/03/15 04:35:52;;;;;;;8.38;1.38;;;1.70;99.90;;;;;;5039966;28;20052;-75
2023/03/15 04:38:25;;;;;;;8.93;1.60;;;1.10;99.90;;;;;;5074432;28;20051;-75
2023/03/15 04:40:53;;;;;;;7.65;1.52;;;1.00;99.90;;;;;;5074353;28;20053;-75
2023/03/15 04:43:19;;;;;;;7.35;1.60;;;1.20;99.90;;;;;;5071289;28;20048;-75
2023/03/15 04:45:45;;;;;;;9.18;1.50;;;1.00;99.90;;;;;;5067704;28;20400;-75
2023/03/15 04:48:11;;;;;;;7.57;1.58;;;1.10;99.90;;;;;;5073489;28;20049;-75
2023/03/15 04:50:37;;;;;;;9.00;1.73;;;1.90;99.90;;;;;;5070407;28;20057;-75
2023/03/15 04:53:03;;;;;;;9.00;1.80;;;1.00;99.90;;;;;;5068158;28;20111;-75
2023/03/15 04:55:28;;;;;;;9.30;1.48;;;0.90;99.90;;;;;;5053217;28;20052;-75
2023/03/15 04:57:55;;;;;;;7.43;1.55;;;0.90;99.90;;;;;;5073648;28;20127;-75
2023/03/15 05:00:21;;;;;;;7.57;1.50;;;0.90;99.90;;;;;;5057492;28;20049;-75
2023/03/15 05:02:53;;;;;;;9.85;1.63;;;0.90;99.90;;;;;;5059753;28;20047;-75
2023/03/15 05:05:21;;;;;;;10.85;1.60;;;0.90;99.90;;;;;;5073575;28;20060;-75
2023/03/15 05:07:46;;;;;;;7.20;1.30;;;0.80;99.90;;;;;;5059737;28;20083;-75
2023/03/15 05:10:12;;;;;;;9.55;1.70;;;0.80;99.90;;;;;;5070871;28;20516;-75
2023/03/15 05:12:38;;;;;;;8.18;1.63;;;0.80;99.90;;;;;;5071761;28;20082;-75
2023/03/15 05:15:04;;;;;;;8.02;1.48;;;0.80;99.90;;;;;;5070844;28;20079;-75
2023/03/15 05:17:32;;;;;;;7.22;1.50;;;0.80;99.90;;;;;;5067734;28;20457;-75
2023/03/15 05:20:00;;;;;;;7.82;1.67;;;0.80;99.90;;;;;;5067746;28;20049;-75
2023/03/15 05:22:26;;;;;;;8.38;1.60;;;0.80;99.90;;;;;;5086712;28;20131;-75
2023/03/15 05:24:55;;;;;;;9.55;1.58;;;0.70;99.90;;;;;;5091608;28;20087;-75
2023/03/15 05:27:20;;;;;;;8.85;1.70;;;0.70;99.90;;;;;;5095076;28;20044;-75
2023/03/15 05:29:46;;;;;;;8.63;1.60;;;1.60;99.90;;;;;;5066366;28;20525;-75
2023/03/15 05:32:13;;;;;;;10.85;1.70;;;0.60;99.90;;;;;;5084539;28;20093;-75
2023/03/15 05:34:38;;;;;;;9.43;1.60;;;0.70;99.90;;;;;;5040223;28;20131;-75
2023/03/15 05:37:04;;;;;;;8.55;1.63;;;0.60;99.90;;;;;;5076031;28;20119;-75
2023/03/15 05:39:33;;;;;;;8.45;1.48;;;0.60;99.90;;;;;;5059467;28;20105;-75
2023/03/15 05:42:00;;;;;;;7.75;1.63;;;0.70;99.90;;;;;;5057633;28;20097;-75
2023/03/15 05:44:26;;;;;;;7.22;1.52;;;1.50;99.90;;;;;;5074020;28;20056;-75
2023/03/15 05:46:52;;;;;;;8.50;1.40;;;0.60;99.90;;;;;;5091689;28;20447;-75
2023/03/15 05:49:17;;;;;;;8.70;1.70;;;0.60;99.90;;;;;;5080878;28;20839;-76
2023/03/15 05:51:43;;;;;;;8.05;1.63;;;0.60;99.90;;;;;;5069607;28;20048;-75
2023/03/15 05:54:09;;;;;;;9.60;1.50;;;1.20;99.90;;;;;;5082037;28;20040;-75
2023/03/15 05:56:35;;;;;;;7.63;1.50;;;0.60;99.90;;;;;;5072231;28;20067;-75
2023/03/15 05:59:01;;;;;;;10.43;1.90;;;0.70;99.90;;;;;;5087338;28;20052;-75
2023/03/15 06:01:27;;;;;;;10.25;1.77;;;0.60;99.90;;;;;;5073936;28;20059;-75
2023/03/15 06:03:53;;;;;;;8.77;1.65;;;0.70;99.90;;;;;;5087546;28;20055;-75
2023/03/15 06:06:19;;;;;;;9.02;1.55;;;0.70;99.90;;;;;;5045953;28;20098;-75
2023/03/15 06:08:44;;;;;;;7.95;1.60;;;1.10;99.90;;;;;;5072766;28;20123;-75
2023/03/15 06:11:10;;;;;;;10.70;1.67;;;0.90;99.90;;;;;;5057292;28;20468;-75
2023/03/15 06:13:36;;;;;;;10.63;1.70;;;0.80;99.90;;;;;;5071926;28;20048;-75
2023/03/15 06:16:01;;;;;;;6.63;1.52;;;0.90;99.90;;;;;;5069566;28;20044;-75
2023/03/15 06:18:27;;;;;;;7.15;1.70;;;0.90;99.90;;;;;;5077664;28;20059;-75
2023/03/15 06:20:53;;;;;;;6.95;1.60;;;1.00;99.90;;;;;;5060386;28;20060;-75
2023/03/15 06:23:19;;;;;;;6.88;1.60;;;1.00;99.90;;;;;;5069977;28;20090;-75
2023/03/15 06:25:45;;;;;;;10.35;1.90;;;1.20;99.90;;;;;;5082974;28;20044;-75
2023/03/15 06:28:11;;;;;;;10.48;1.58;;;1.00;99.90;;;;;;5065527;28;20487;-75
2023/03/15 06:30:37;;;;;;;7.82;1.77;;;1.00;99.90;;;;;;5072156;28;20059;-75
2023/03/15 06:33:02;;;;;;;11.10;2.10;;;1.10;99.90;;;;;;5062612;28;20048;-75
2023/03/15 06:35:28;;;;;;;7.57;1.92;;;1.10;99.90;;;;;;5064539;28;20391;-75
2023/03/15 06:37:54;;;;;;;8.80;1.67;;;1.10;99.90;;;;;;5074019;28;20080;-75
2023/03/15 06:40:20;;;;;;;8.35;1.73;;;1.10;99.90;;;;;;5086581;28;20048;-75
2023/03/15 06:42:45;;;;;;;8.68;1.90;;;1.10;99.90;;;;;;5072651;28;20044;-75
2023/03/15 06:45:11;;;;;;;8.52;1.70;;;1.30;99.90;;;;;;5070366;28;20112;-75
2023/03/15 06:47:37;;;;;;;6.70;1.52;;;1.20;99.90;;;;;;5070493;28;20136;-75
2023/03/15 06:50:04;;;;;;;11.00;2.00;;;1.20;99.90;;;;;;5087181;28;20119;-75
2023/03/15 06:52:29;;;;;;;7.32;1.55;;;1.30;99.90;;;;;;5072156;28;20122;-74
2023/03/15 06:54:55;;;;;;;12.68;1.90;;;1.50;99.90;;;;;;5074156;28;20448;-74
2023/03/15 06:57:21;;;;;;;8.40;1.60;;;1.70;99.90;;;;;;5064301;28;20448;-74
2023/03/15 06:59:47;;;;;;;10.65;1.98;;;1.90;99.90;;;;;;5073745;28;20052;-74
2023/03/15 07:02:15;;;;;;;7.38;1.73;;;2.20;99.90;;;;;;5091840;28;20562;-74
2023/03/15 07:04:41;;;;;;;7.50;1.77;;;2.50;99.90;;;;;;5067147;28;20037;-74
2023/03/15 07:07:06;;;;;;;6.18;1.48;;;2.70;99.90;;;;;;5037893;28;20097;-74
2023/03/15 07:09:32;;;;;;;8.55;1.80;;;2.90;99.90;;;;;;5093130;28;20094;-74
2023/03/15 07:11:58;;;;;;;10.00;1.83;;;3.20;99.90;;;;;;5070041;28;20483;-74
2023/03/15 07:14:24;;;;;;;8.25;1.42;;;3.30;99.90;;;;;;5090258;28;20051;-74
2023/03/15 07:16:49;;;;;;;8.45;1.65;;;3.40;99.90;;;;;;5091907;28;20096;-74
2023/03/15 07:19:15;;;;;;;6.32;1.50;;;3.40;99.90;;;;;;5071357;28;20129;-74
2023/03/15 07:21:41;;;;;;;8.60;1.80;;;3.50;99.90;;;;;;5084626;28;20380;-74
2023/03/15 07:24:07;;;;;;;8.15;1.65;;;3.50;99.90;;;;;;5067655;28;20044;-74
2023/03/15 07:26:32;;;;;;;5.75;1.60;;;3.50;99.90;;;;;;5072840;28;20040;-74
2023/03/15 07:28:58;;;;;;;7.20;1.63;;;3.50;99.90;;;;;;5073987;28;20044;-74
2023/03/15 07:31:24;;;;;;;7.47;1.40;;;3.60;99.90;;;;;;5071044;28;20052;-74
2023/03/15 07:33:49;;;;;;;7.55;1.40;;;3.60;99.90;;;;;;5070202;28;20101;-74
2023/03/15 07:36:15;;;;;;;9.95;1.65;;;3.60;99.90;;;;;;5070697;28;20124;-74
2023/03/15 07:38:41;;;;;;;9.18;1.70;;;3.70;99.90;;;;;;5054500;28;20084;-74
2023/03/15 07:41:07;;;;;;;8.20;1.40;;;3.90;99.90;;;;;;5037927;28;20123;-74
2023/03/15 07:43:33;;;;;;;7.57;1.58;;;3.90;99.90;;;;;;5058001;28;20044;-74
2023/03/15 07:46:00;;;;;;;6.18;1.55;;;3.90;99.90;;;;;;5071300;28;20048;-74
2023/03/15 07:48:28;;;;;;;7.20;1.60;;;4.00;99.90;;;;;;5072989;28;20109;-75
2023/03/15 07:50:54;;;;;;;10.05;1.88;;;4.10;99.90;;;;;;5066259;28;20083;-74
2023/03/15 07:53:20;;;;;;;7.47;1.50;;;4.10;99.90;;;;;;5074967;28;20047;-74
2023/03/15 07:55:47;;;;;;;8.10;1.90;;;4.20;99.90;;;;;;5069223;28;20048;-74
2023/03/15 07:58:13;;;;;;;7.05;1.50;;;4.40;99.90;;;;;;5057783;28;20083;-75
2023/03/15 08:00:39;;;;;;;7.28;1.83;;;4.40;99.90;;;;;;5072852;28;20056;-74
2023/03/15 08:03:06;;;;;;;6.30;1.50;;;4.50;99.90;;;;;;5075139;28;20044;-74
2023/03/15 08:05:33;;;;;;;9.98;1.70;;;4.40;99.90;;;;;;5073495;28;20052;-75
2023/03/15 08:07:59;;;;;;;9.18;1.88;;;4.50;99.90;;;;;;5073539;28;20101;-74
2023/03/15 08:10:25;;;;;;;9.70;1.92;;;4.50;99.90;;;;;;5074450;28;20045;-75
2023/03/15 08:12:51;;;;;;;8.35;1.83;;;4.50;99.90;;;;;;5075660;28;20114;-74
2023/03/15 08:15:18;;;;;;;7.68;1.70;;;4.60;99.90;;;;;;5075993;28;20052;-75
2023/03/15 08:17:45;;;;;;;11.18;2.00;;;4.60;99.90;;;;;;5092939;28;20036;-74
2023/03/15 08:20:13;;;;;;;9.13;1.70;;;4.60;99.90;;;;;;5093958;28;20083;-74
2023/03/15 08:22:46;;;;;;;11.25;1.85;;;4.70;99.90;;;;;;5044594;28;20055;-75
2023/03/15 08:25:14;;;;;;;8.23;2.00;;;4.80;99.90;;;;;;5050315;28;20495;-75
2023/03/15 08:27:40;;;;;;;8.40;1.75;;;4.80;99.90;;;;;;5037048;28;20058;-75
2023/03/15 08:30:09;;;;;;;7.28;1.75;;;4.90;99.90;;;;;;5008990;28;20063;-74
2023/03/15 08:32:35;;;;;;;11.88;2.05;;;4.90;99.90;;;;;;5051590;28;20581;-74
2023/03/15 08:35:01;;;;;;;8.65;1.70;;;4.90;99.90;;;;;;5051217;28;20041;-76
2023/03/15 08:37:27;;;;;;;8.77;1.98;;;5.00;99.90;;;;;;5049963;28;20053;-75
2023/03/15 08:39:59;;;;;;;11.82;2.15;;;5.00;99.90;;;;;;5052428;28;20544;-75
2023/03/15 08:42:26;;;;;;;8.90;1.92;;;5.10;99.90;;;;;;5048628;28;20104;-75
2023/03/15 08:44:52;;;;;;;10.18;2.20;;;5.10;99.90;;;;;;5036211;28;20037;-74
2023/03/15 08:47:18;;;;;;;9.27;2.00;;;5.20;99.90;;;;;;5034399;28;20120;-74
2023/03/15 08:49:44;;;;;;;10.65;2.13;;;5.30;99.90;;;;;;5029578;28;20048;-74
2023/03/15 08:52:09;;;;;;;11.50;1.92;;;5.50;99.90;;;;;;5049806;28;20049;-75
2023/03/15 08:54:35;;;;;;;12.40;2.45;;;5.70;99.90;;;;;;5049875;28;20146;-74
2023/03/15 08:57:01;;;;;;;10.27;1.90;;;5.90;99.90;;;;;;5051581;28;20044;-74
2023/03/15 08:59:27;;;;;;;9.80;2.00;;;5.90;99.90;;;;;;5032709;28;20111;-74
2023/03/15 09:01:52;;;;;;;11.20;2.20;;;6.10;99.90;;;;;;5047807;28;20168;-74
2023/03/15 09:04:18;;;;;;;8.70;2.05;;;6.30;99.90;;;;;;5052781;28;20045;-75
2023/03/15 09:06:44;;;;;;;13.25;2.17;;;6.40;99.90;;;;;;5052320;28;20126;-74
2023/03/15 09:09:10;;;;;;;13.95;2.17;;;6.60;99.90;;;;;;5048823;28;20144;-74
2023/03/15 09:11:36;;;;;;;13.65;2.00;;;6.70;99.90;;;;;;5049498;28;20115;-74
2023/03/15 09:14:01;;;;;;;11.55;2.15;;;6.70;99.90;;;;;;5047773;28;20038;-74
2023/03/15 09:16:27;;;;;;;12.98;2.00;;;6.80;99.90;;;;;;5050712;28;20053;-74
2023/03/15 09:18:53;;;;;;;12.77;1.90;;;6.90;99.90;;;;;;5049970;28;20044;-74
2023/03/15 09:21:19;;;;;;;8.82;1.75;;;7.00;99.90;;;;;;5050241;28;20061;-75
2023/03/15 09:23:44;;;;;;;9.13;1.95;;;7.10;99.90;;;;;;5030768;28;20694;-74
2023/03/15 09:26:10;;;;;;;11.55;2.20;;;7.10;99.90;;;;;;5041671;28;20049;-75
2023/03/15 09:28:36;;;;;;;9.35;1.90;;;7.40;99.90;;;;;;5042225;28;20050;-75
2023/03/15 09:31:05;;;;;;;8.02;2.00;;;7.50;99.90;;;;;;5016264;28;20053;-74
2023/03/15 09:33:32;;;;;;;10.43;1.90;;;7.40;99.90;;;;;;5047837;28;20115;-75
2023/03/15 09:35:58;;;;;;;10.20;1.73;;;7.20;99.90;;;;;;5039910;28;20501;-74
2023/03/15 09:38:23;;;;;;;11.15;2.13;;;7.10;99.90;;;;;;5032127;28;20109;-74
2023/03/15 09:40:50;;;;;;;10.85;1.90;;;7.20;99.90;;;;;;5050354;28;20037;-75
2023/03/15 09:43:43;;;;;;;8.43;1.83;;;7.40;99.90;;;;;;5048523;28;20052;-74
2023/03/15 09:46:15;;;;;;;9.85;1.92;;;7.60;99.90;;;;;;5042014;28;20485;-74
2023/03/15 09:49:08;;;;;;;7.15;1.60;;;7.90;99.90;;;;;;5048631;28;20055;-74
2023/03/15 09:51:46;;;;;;;8.32;1.50;;;8.10;99.90;;;;;;5040224;28;20057;-74
2023/03/15 09:54:22;;;;;;;10.82;1.80;;;8.20;99.90;;;;;;5026796;28;20059;-74
2023/03/15 09:57:03;;;;;;;8.65;1.50;;;8.30;99.90;;;;;;5054171;28;20131;-75
2023/03/15 09:59:37;;;;;;;8.80;1.63;;;8.50;99.90;;;;;;5048059;28;20056;-74
2023/03/15 10:02:24;;;;;;;8.13;2.25;;;8.50;99.90;;;;;;5045008;28;20429;-74
2023/03/15 10:05:06;;;;;;;7.38;1.40;;;8.30;99.90;;;;;;5048482;28;20056;-75
2023/03/15 10:07:34;;;;;;;8.30;1.70;;;8.40;99.90;;;;;;5047426;28;20355;-75
2023/03/15 10:10:03;;;;;;;9.45;2.00;;;8.40;99.90;;;;;;5032916;28;20045;-75
2023/03/15 10:12:40;;;;;;;9.00;1.60;;;8.10;97.70;;;;;;5048014;28;20563;-75
2023/03/15 10:15:36;;;;;;;7.63;1.60;;;8.20;99.60;;;;;;5044602;28;20040;-75
2023/03/15 10:18:16;;;;;;;6.70;1.35;;;8.20;97.90;;;;;;5035497;28;20063;-75
2023/03/15 10:20:52;;;;;;;7.03;1.40;;;8.30;98.00;;;;;;5045748;28;20041;-76
2023/03/15 10:23:50;;;;;;;7.78;1.40;;;8.30;97.10;;;;;;5002642;28;20054;-75
2023/03/15 10:26:21;;;;;;;5.97;1.42;;;8.50;96.60;;;;;;4988744;28;20057;-75
2023/03/15 10:28:48;;;;;;;6.70;1.48;;;8.50;97.60;;;;;;5004381;28;20065;-75
2023/03/15 10:31:17;;;;;;;7.97;1.52;;;8.40;95.60;;;;;;5007643;28;20494;-75
2023/03/15 10:33:45;;;;;;;8.32;1.52;;;8.20;96.10;;;;;;5008651;28;20053;-74
2023/03/15 10:36:16;;;;;;;8.40;1.50;;;8.20;96.30;;;;;;5008484;28;20125;-75
2023/03/15 10:38:42;;;;;;;6.45;1.33;;;8.10;94.30;;;;;;5003529;28;20390;-75
2023/03/15 10:41:12;;;;;;;9.40;1.60;;;8.40;96.90;;;;;;5004323;28;20049;-75
2023/03/15 10:43:38;;;;;;;7.40;1.40;;;8.70;96.50;;;;;;5005850;28;20057;-75
2023/03/15 10:46:10;;;;;;;7.80;1.35;;;8.90;95.00;;;;;;4992086;28;20061;-75
2023/03/15 10:48:58;;;;;;;7.35;1.60;;;8.90;95.30;;;;;;5004959;28;20068;-75
2023/03/15 10:51:32;;;;;;;9.05;1.40;;;8.90;95.50;;;;;;5005083;28;20421;-74
2023/03/15 10:54:19;;;;;;;6.32;1.38;;;9.10;94.50;;;;;;5001939;28;20049;-74
2023/03/15 10:56:54;;;;;;;7.57;1.40;;;9.20;94.00;;;;;;5001860;28;20110;-74
2023/03/15 10:59:25;;;;;;;8.13;1.60;;;9.10;94.20;;;;;;5003577;28;20049;-74
2023/03/15 11:01:53;;;;;;;7.47;1.60;;;9.20;94.00;;;;;;5011909;28;20398;-75
2023/03/15 11:04:22;;;;;;;6.90;1.67;;;9.20;93.10;;;;;;5008162;28;20284;-75
2023/03/15 11:07:03;;;;;;;8.45;1.58;;;9.10;93.80;;;;;;5009754;28;20547;-74
2023/03/15 11:09:57;;;;;;;9.70;1.53;;;9.20;93.60;;;;;;5007304;28;20049;-75
2023/03/15 11:12:25;;;;;;;11.77;3.00;;;9.20;92.10;;;;;;4994670;28;20049;-75
2023/03/15 11:14:57;;;;;;;8.05;1.50;;;8.80;91.50;;;;;;5011813;28;20064;-75
2023/03/15 11:17:31;;;;;;;;;;;8.90;92.90;;;;;;5012132;28;20064;-75
2023/03/15 11:20:14;;;;;;;7.05;1.60;;;9.00;94.60;;;;;;5019004;28;19922;-75
2023/03/15 11:22:40;;;;;;;5.95;1.25;;;9.20;94.20;;;;;;5028590;28;20046;-75
2023/03/15 11:25:14;;;;;;;8.38;1.60;;;9.20;91.50;;;;;;5041818;28;20053;-74
2023/03/15 11:27:45;;;;;;;7.38;1.50;;;9.00;90.50;;;;;;5042956;28;20041;-75
2023/03/15 11:30:28;;;;;;;5.32;1.23;;;8.90;91.90;;;;;;5036199;28;20045;-75
2023/03/15 11:32:57;;;;;;;10.38;1.52;;;9.20;92.20;;;;;;5046632;28;20041;-75
2023/03/15 11:35:29;;;;;;;8.00;1.60;;;9.20;91.30;;;;;;5040843;28;20144;-75
2023/03/15 11:38:02;;;;;;;6.43;1.38;;;9.50;92.80;;;;;;5045890;28;20131;-75
2023/03/15 11:40:27;;;;;;;;;;;9.60;92.30;;;;;;5049204;28;20053;-75
2023/03/15 11:43:08;;;;;;;7.00;1.33;;;9.70;91.40;;;;;;5046772;28;20427;-75
2023/03/15 11:46:03;;;;;;;6.28;1.30;;;9.80;90.50;;;;;;5049143;28;20053;-74
2023/03/15 11:48:39;;;;;;;6.05;1.40;;;9.70;89.70;;;;;;5044694;28;20053;-75
2023/03/15 11:51:06;;;;;;;5.68;1.27;;;9.70;87.40;;;;;;5049728;28;20048;-75
2023/03/15 11:54:11;;;;;;;7.75;1.80;;;9.70;90.20;;;;;;5048909;28;20094;-75
2023/03/15 11:56:43;;;;;;;6.70;1.38;;;9.90;88.00;;;;;;5043221;28;20061;-75
2023/03/15 11:59:12;;;;;;;7.93;1.45;;;10.10;87.70;;;;;;5047549;28;20095;-75
2023/03/15 12:02:04;;;;;;;6.32;1.38;;;9.90;85.80;;;;;;5044225;28;20139;-74
2023/03/15 12:04:33;;;;;;;7.07;1.50;;;10.00;87.50;;;;;;5031380;28;20044;-75
2023/03/15 12:07:23;;;;;;;7.97;1.45;;;10.10;85.80;;;;;;5031497;28;20060;-75
2023/03/15 12:09:51;;;;;;;6.63;1.30;;;10.20;88.40;;;;;;5045746;28;20049;-75
2023/03/15 12:12:23;;;;;;;5.90;1.40;;;10.10;83.10;;;;;;5039961;28;20056;-75
2023/03/15 12:15:12;;;;;;;6.28;1.30;;;10.00;81.00;;;;;;5049030;28;20051;-75
2023/03/15 12:17:55;;;;;;;6.43;1.40;;;10.10;79.80;;;;;;5030734;28;20045;-75
2023/03/15 12:20:38;;;;;;;7.05;1.30;;;10.20;83.20;;;;;;5044637;28;20054;-75
2023/03/15 12:23:09;;;;;;;9.10;1.55;;;10.30;84.10;;;;;;5047138;28;20053;-75
2023/03/15 12:25:38;;;;;;;8.38;1.40;;;10.50;84.20;;;;;;5029115;28;20056;-75
2023/03/15 12:28:08;;;;;;;6.47;1.35;;;10.50;81.70;;;;;;5045590;28;20052;-76
2023/03/15 12:30:43;;;;;;;8.73;1.40;;;10.60;79.00;;;;;;5047077;28;20143;-76
2023/03/15 12:33:20;;;;;;;6.45;1.20;;;10.60;77.70;;;;;;5044480;28;20049;-75
2023/03/15 12:35:48;;;;;;;7.05;1.38;;;10.50;80.30;;;;;;5051012;28;20515;-76
2023/03/15 12:38:21;;;;;;;5.82;1.30;;;10.50;79.90;;;;;;5050722;28;20124;-75
2023/03/15 12:40:53;;;;;;;8.63;1.70;;;10.50;79.60;;;;;;5050357;28;20053;-76
2023/03/15 12:43:44;;;;;;;9.60;1.45;;;10.60;81.00;;;;;;5044674;28;20053;-75
2023/03/15 12:46:39;;;;;;;5.65;1.30;;;10.60;78.50;;;;;;5049227;28;20090;-76
2023/03/15 12:49:23;;;;;;;7.10;1.38;;;10.80;79.50;;;;;;5031628;28;20573;-75
2023/03/15 12:52:10;;;;;;;6.53;1.40;;;10.80;80.40;;;;;;5050731;28;20057;-75
2023/03/15 12:54:58;;;;;;;6.25;1.48;;;11.00;79.00;;;;;;5050263;28;20111;-75
2023/03/15 12:57:29;;;;;;;6.15;1.30;;;11.00;79.60;;;;;;5042568;28;20508;-76
2023/03/15 13:00:06;;;;;;;5.75;1.40;;;11.00;75.90;;;;;;5048108;28;20526;-75
2023/03/15 13:02:42;;;;;;;5.57;1.17;;;10.90;78.40;;;;;;5047308;28;20061;-75
2023/03/15 13:05:08;;;;;;;5.53;1.10;;;10.80;72.90;;;;;;5049549;28;20427;-75
2023/03/15 13:07:36;;;;;;;6.72;1.38;;;10.80;75.30;;;;;;5033958;28;20098;-74